sensor_id;sensor_type;location;lat;lon;timestamp;temperature;humidity
50570;DHT22;36525;49.398;7.614;2023-01-09T00:01:31;7.50;99.90
50570;DHT22;36525;49.398;7.614;2023-01-09T00:04:01;7.50;99.90
50570;DHT22;36525;49.398;7.614;2023-01-09T00:06:28;7.50;99.90
50570;DHT22;36525;49.398;7.614;2023-01-09T00:08:56;7.60;99.90
50570;DHT22;36525;49.398;7.614;2023-01-09T00:11:23;7.60;99.90
50570;DHT22;36525;49.398;7.614;2023-01-09T00:13:50;7.60;99.90
50570;DHT22;36525;49.398;7.614;2023-01-09T00:16:18;7.50;99.90
50570;DHT22;36525;49.398;7.614;2023-01-09T00:18:45;7.50;99.90
50570;DHT22;36525;49.398;7.614;2023-01-09T00:21:12;7.50;99.90
50570;DHT22;36525;49.398;7.614;2023-01-09T00:23:40;7.50;99.90
50570;DHT22;36525;49.398;7.614;2023-01-09T00:26:10;7.50;99.90
50570;DHT22;36525;49.398;7.614;2023-01-09T00:28:39;7.50;99.90
50570;DHT22;36525;49.398;7.614;2023-01-09T00:31:07;7.60;99.90
50570;DHT22;36525;49.398;7.614;2023-01-09T00:33:38;7.60;99.90
50570;DHT22;36525;49.398;7.614;2023-01-09T00:36:09;7.60;99.90
50570;DHT22;36525;49.398;7.614;2023-01-09T00:38:37;7.60;99.90
50570;DHT22;36525;49.398;7.614;2023-01-09T00:41:06;7.60;99.90
50570;DHT22;36525;49.398;7.614;2023-01-09T00:43:40;7.60;99.90
50570;DHT22;36525;49.398;7.614;2023-01-09T00:46:11;7.60;99.90
50570;DHT22;36525;49.398;7.614;2023-01-09T00:48:41;7.60;99.90
50570;DHT22;36525;49.398;7.614;2023-01-09T00:51:09;7.50;99.90
50570;DHT22;36525;49.398;7.614;2023-01-09T00:53:38;7.50;99.90
50570;DHT22;36525;49.398;7.614;2023-01-09T00:56:10;7.50;99.90
50570;DHT22;36525;49.398;7.614;2023-01-09T00:58:40;7.50;99.90
50570;DHT22;36525;49.398;7.614;2023-01-09T01:01:07;7.60;99.90
50570;DHT22;36525;49.398;7.614;2023-01-09T01:03:34;7.50;99.90
50570;DHT22;36525;49.398;7.614;2023-01-09T01:06:02;7.50;99.90
50570;DHT22;36525;49.398;7.614;2023-01-09T01:08:47;7.50;99.90
50570;DHT22;36525;49.398;7.614;2023-01-09T01:11:15;7.50;99.90
50570;DHT22;36525;49.398;7.614;2023-01-09T01:13:42;7.50;99.90
50570;DHT22;36525;49.398;7.614;2023-01-09T01:16:11;7.50;99.90
50570;DHT22;36525;49.398;7.614;2023-01-09T01:18:39;7.50;99.90
50570;DHT22;36525;49.398;7.614;2023-01-09T01:21:08;7.50;99.90
50570;DHT22;36525;49.398;7.614;2023-01-09T01:23:37;7.50;99.90
50570;DHT22;36525;49.398;7.614;2023-01-09T01:26:06;7.50;99.90
50570;DHT22;36525;49.398;7.614;2023-01-09T01:28:38;7.40;99.90
50570;DHT22;36525;49.398;7.614;2023-01-09T01:31:06;7.40;99.90
50570;DHT22;36525;49.398;7.614;2023-01-09T01:33:33;7.40;99.90
50570;DHT22;36525;49.398;7.614;2023-01-09T01:36:06;7.40;99.90
50570;DHT22;36525;49.398;7.614;2023-01-09T01:38:34;7.40;99.90
50570;DHT22;36525;49.398;7.614;2023-01-09T01:41:02;7.40;99.90
50570;DHT22;36525;49.398;7.614;2023-01-09T01:43:52;7.40;99.90
50570;DHT22;36525;49.398;7.614;2023-01-09T01:46:32;7.30;99.90
50570;DHT22;36525;49.398;7.614;2023-01-09T01:49:10;7.30;99.90
50570;DHT22;36525;49.398;7.614;2023-01-09T01:51:44;7.30;99.90
50570;DHT22;36525;49.398;7.614;2023-01-09T01:54:16;7.20;99.90
50570;DHT22;36525;49.398;7.614;2023-01-09T01:56:52;7.20;99.90
50570;DHT22;36525;49.398;7.614;2023-01-09T02:02:04;7.20;99.90
50570;DHT22;36525;49.398;7.614;2023-01-09T02:04:33;7.10;99.90
50570;DHT22;36525;49.398;7.614;2023-01-09T02:07:06;7.20;99.90
50570;DHT22;36525;49.398;7.614;2023-01-09T02:09:36;7.10;99.90
50570;DHT22;36525;49.398;7.614;2023-01-09T02:12:22;7.10;99.90
50570;DHT22;36525;49.398;7.614;2023-01-09T02:15:02;7.10;99.90
50570;DHT22;36525;49.398;7.614;2023-01-09T02:23:54;7.10;99.90
50570;DHT22;36525;49.398;7.614;2023-01-09T02:29:45;7.10;99.90
50570;DHT22;36525;49.398;7.614;2023-01-09T02:39:16;7.00;99.90
50570;DHT22;36525;49.398;7.614;2023-01-09T02:44:32;7.00;99.90
50570;DHT22;36525;49.398;7.614;2023-01-09T02:50:02;7.00;99.90
50570;DHT22;36525;49.398;7.614;2023-01-09T03:01:59;6.90;99.90
50570;DHT22;36525;49.398;7.614;2023-01-09T03:07:40;6.90;99.90
50570;DHT22;36525;49.398;7.614;2023-01-09T03:10:20;6.90;99.90
50570;DHT22;36525;49.398;7.614;2023-01-09T03:12:52;6.80;99.90
50570;DHT22;36525;49.398;7.614;2023-01-09T03:15:23;6.80;99.90
50570;DHT22;36525;49.398;7.614;2023-01-09T03:17:53;6.90;99.90
50570;DHT22;36525;49.398;7.614;2023-01-09T03:20:23;6.80;99.90
50570;DHT22;36525;49.398;7.614;2023-01-09T03:22:59;6.80;99.90
50570;DHT22;36525;49.398;7.614;2023-01-09T03:25:29;6.70;99.90
50570;DHT22;36525;49.398;7.614;2023-01-09T03:28:02;6.70;99.90
50570;DHT22;36525;49.398;7.614;2023-01-09T03:30:31;6.70;99.90
50570;DHT22;36525;49.398;7.614;2023-01-09T03:32:59;6.60;99.90
50570;DHT22;36525;49.398;7.614;2023-01-09T03:35:27;6.60;99.90
50570;DHT22;36525;49.398;7.614;2023-01-09T03:37:54;6.60;99.90
50570;DHT22;36525;49.398;7.614;2023-01-09T03:40:21;6.60;99.90
50570;DHT22;36525;49.398;7.614;2023-01-09T03:42:48;6.50;99.90
50570;DHT22;36525;49.398;7.614;2023-01-09T03:45:15;6.50;99.90
50570;DHT22;36525;49.398;7.614;2023-01-09T03:47:42;6.50;99.90
50570;DHT22;36525;49.398;7.614;2023-01-09T03:50:09;6.40;99.90
50570;DHT22;36525;49.398;7.614;2023-01-09T03:52:37;6.40;99.90
50570;DHT22;36525;49.398;7.614;2023-01-09T03:55:04;6.40;99.90
50570;DHT22;36525;49.398;7.614;2023-01-09T03:57:31;6.50;99.90
50570;DHT22;36525;49.398;7.614;2023-01-09T03:59:58;6.60;99.90
50570;DHT22;36525;49.398;7.614;2023-01-09T04:02:25;6.60;99.90
50570;DHT22;36525;49.398;7.614;2023-01-09T04:04:52;6.40;99.90
50570;DHT22;36525;49.398;7.614;2023-01-09T04:07:19;6.40;99.90
50570;DHT22;36525;49.398;7.614;2023-01-09T04:09:46;6.40;99.90
50570;DHT22;36525;49.398;7.614;2023-01-09T04:12:14;6.40;99.90
50570;DHT22;36525;49.398;7.614;2023-01-09T04:14:41;6.30;99.90
50570;DHT22;36525;49.398;7.614;2023-01-09T04:17:08;6.40;99.90
50570;DHT22;36525;49.398;7.614;2023-01-09T04:19:35;6.40;99.90
50570;DHT22;36525;49.398;7.614;2023-01-09T04:22:02;6.40;99.90
50570;DHT22;36525;49.398;7.614;2023-01-09T04:24:29;6.30;99.90
50570;DHT22;36525;49.398;7.614;2023-01-09T04:26:58;6.20;99.90
50570;DHT22;36525;49.398;7.614;2023-01-09T04:29:25;6.20;99.90
50570;DHT22;36525;49.398;7.614;2023-01-09T04:31:52;6.10;99.90
50570;DHT22;36525;49.398;7.614;2023-01-09T04:34:19;6.00;99.90
50570;DHT22;36525;49.398;7.614;2023-01-09T04:36:51;5.90;99.90
50570;DHT22;36525;49.398;7.614;2023-01-09T04:39:21;5.90;99.90
50570;DHT22;36525;49.398;7.614;2023-01-09T04:41:49;5.90;99.90
50570;DHT22;36525;49.398;7.614;2023-01-09T04:44:20;5.90;99.90
50570;DHT22;36525;49.398;7.614;2023-01-09T04:46:48;5.80;99.90
50570;DHT22;36525;49.398;7.614;2023-01-09T04:49:15;5.70;99.90
50570;DHT22;36525;49.398;7.614;2023-01-09T04:51:42;5.70;99.90
50570;DHT22;36525;49.398;7.614;2023-01-09T04:54:10;5.70;99.90
50570;DHT22;36525;49.398;7.614;2023-01-09T04:56:37;5.70;99.90
50570;DHT22;36525;49.398;7.614;2023-01-09T04:59:05;5.70;99.90
50570;DHT22;36525;49.398;7.614;2023-01-09T05:01:34;5.70;99.90
50570;DHT22;36525;49.398;7.614;2023-01-09T05:04:02;5.70;99.90
50570;DHT22;36525;49.398;7.614;2023-01-09T05:06:29;5.70;99.90
50570;DHT22;36525;49.398;7.614;2023-01-09T05:08:57;5.60;99.90
50570;DHT22;36525;49.398;7.614;2023-01-09T05:11:24;5.70;99.90
50570;DHT22;36525;49.398;7.614;2023-01-09T05:13:52;5.70;99.90
50570;DHT22;36525;49.398;7.614;2023-01-09T05:16:20;5.70;99.90
50570;DHT22;36525;49.398;7.614;2023-01-09T05:18:47;5.70;99.90
50570;DHT22;36525;49.398;7.614;2023-01-09T05:21:14;5.80;99.90
50570;DHT22;36525;49.398;7.614;2023-01-09T05:23:42;5.70;99.90
50570;DHT22;36525;49.398;7.614;2023-01-09T05:26:09;5.60;99.90
50570;DHT22;36525;49.398;7.614;2023-01-09T05:28:36;5.50;99.90
50570;DHT22;36525;49.398;7.614;2023-01-09T05:31:03;5.40;99.90
50570;DHT22;36525;49.398;7.614;2023-01-09T05:33:30;5.40;99.90
50570;DHT22;36525;49.398;7.614;2023-01-09T05:35:57;5.30;99.90
50570;DHT22;36525;49.398;7.614;2023-01-09T05:38:24;5.20;99.90
50570;DHT22;36525;49.398;7.614;2023-01-09T05:40:51;5.30;99.90
50570;DHT22;36525;49.398;7.614;2023-01-09T05:43:18;5.20;99.90
50570;DHT22;36525;49.398;7.614;2023-01-09T05:45:46;5.30;99.90
50570;DHT22;36525;49.398;7.614;2023-01-09T05:48:13;5.20;99.90
50570;DHT22;36525;49.398;7.614;2023-01-09T05:50:40;5.30;99.90
50570;DHT22;36525;49.398;7.614;2023-01-09T05:53:07;5.20;99.90
50570;DHT22;36525;49.398;7.614;2023-01-09T05:55:35;5.20;99.90
50570;DHT22;36525;49.398;7.614;2023-01-09T05:58:01;5.10;99.90
50570;DHT22;36525;49.398;7.614;2023-01-09T06:00:29;5.20;99.90
50570;DHT22;36525;49.398;7.614;2023-01-09T06:02:56;5.10;99.90
50570;DHT22;36525;49.398;7.614;2023-01-09T06:05:23;5.20;99.90
50570;DHT22;36525;49.398;7.614;2023-01-09T06:07:50;5.10;99.90
50570;DHT22;36525;49.398;7.614;2023-01-09T06:10:18;5.20;99.90
50570;DHT22;36525;49.398;7.614;2023-01-09T06:12:47;5.20;99.90
50570;DHT22;36525;49.398;7.614;2023-01-09T06:15:16;5.20;99.90
50570;DHT22;36525;49.398;7.614;2023-01-09T06:17:43;5.20;99.90
50570;DHT22;36525;49.398;7.614;2023-01-09T06:20:10;5.30;99.90
50570;DHT22;36525;49.398;7.614;2023-01-09T06:22:38;5.30;99.90
50570;DHT22;36525;49.398;7.614;2023-01-09T06:25:05;5.30;99.90
50570;DHT22;36525;49.398;7.614;2023-01-09T06:27:33;5.30;99.90
50570;DHT22;36525;49.398;7.614;2023-01-09T06:30:00;5.30;99.90
50570;DHT22;36525;49.398;7.614;2023-01-09T06:32:27;5.30;99.90
50570;DHT22;36525;49.398;7.614;2023-01-09T06:34:54;5.30;99.90
50570;DHT22;36525;49.398;7.614;2023-01-09T06:37:21;5.30;99.90
50570;DHT22;36525;49.398;7.614;2023-01-09T06:39:48;5.30;99.90
50570;DHT22;36525;49.398;7.614;2023-01-09T06:42:16;5.30;99.90
50570;DHT22;36525;49.398;7.614;2023-01-09T06:44:42;5.30;99.90
50570;DHT22;36525;49.398;7.614;2023-01-09T06:47:10;5.30;99.90
50570;DHT22;36525;49.398;7.614;2023-01-09T06:49:37;5.30;99.90
50570;DHT22;36525;49.398;7.614;2023-01-09T06:52:04;5.20;99.90
50570;DHT22;36525;49.398;7.614;2023-01-09T06:54:33;5.30;99.90
50570;DHT22;36525;49.398;7.614;2023-01-09T06:57:01;5.30;99.90
50570;DHT22;36525;49.398;7.614;2023-01-09T06:59:28;5.20;99.90
50570;DHT22;36525;49.398;7.614;2023-01-09T07:01:55;5.20;99.90
50570;DHT22;36525;49.398;7.614;2023-01-09T07:04:22;5.30;99.90
50570;DHT22;36525;49.398;7.614;2023-01-09T07:06:49;5.30;99.90
50570;DHT22;36525;49.398;7.614;2023-01-09T07:09:16;5.30;99.90
50570;DHT22;36525;49.398;7.614;2023-01-09T07:11:43;5.20;99.90
50570;DHT22;36525;49.398;7.614;2023-01-09T07:14:10;5.30;99.90
50570;DHT22;36525;49.398;7.614;2023-01-09T07:16:37;5.30;99.90
50570;DHT22;36525;49.398;7.614;2023-01-09T07:19:04;5.30;99.90
50570;DHT22;36525;49.398;7.614;2023-01-09T07:21:31;5.30;99.90
50570;DHT22;36525;49.398;7.614;2023-01-09T07:23:59;5.30;99.90
50570;DHT22;36525;49.398;7.614;2023-01-09T07:26:26;5.30;99.90
50570;DHT22;36525;49.398;7.614;2023-01-09T07:28:53;5.30;99.90
50570;DHT22;36525;49.398;7.614;2023-01-09T07:31:20;5.30;99.90
50570;DHT22;36525;49.398;7.614;2023-01-09T07:33:47;5.30;99.90
50570;DHT22;36525;49.398;7.614;2023-01-09T07:36:14;5.30;99.90
50570;DHT22;36525;49.398;7.614;2023-01-09T07:38:41;5.30;99.90
50570;DHT22;36525;49.398;7.614;2023-01-09T07:41:08;5.40;99.90
50570;DHT22;36525;49.398;7.614;2023-01-09T07:43:37;5.30;99.90
50570;DHT22;36525;49.398;7.614;2023-01-09T07:46:05;5.30;99.90
50570;DHT22;36525;49.398;7.614;2023-01-09T07:48:32;5.30;99.90
50570;DHT22;36525;49.398;7.614;2023-01-09T07:50:59;5.30;99.90
50570;DHT22;36525;49.398;7.614;2023-01-09T07:53:26;5.30;99.90
50570;DHT22;36525;49.398;7.614;2023-01-09T07:55:53;5.30;99.90
50570;DHT22;36525;49.398;7.614;2023-01-09T07:58:20;5.30;99.90
50570;DHT22;36525;49.398;7.614;2023-01-09T08:00:49;5.30;99.90
50570;DHT22;36525;49.398;7.614;2023-01-09T08:03:16;5.30;99.90
50570;DHT22;36525;49.398;7.614;2023-01-09T08:05:44;5.30;99.90
50570;DHT22;36525;49.398;7.614;2023-01-09T08:08:12;5.30;99.90
50570;DHT22;36525;49.398;7.614;2023-01-09T08:10:40;5.30;99.90
50570;DHT22;36525;49.398;7.614;2023-01-09T08:13:08;5.30;99.90
50570;DHT22;36525;49.398;7.614;2023-01-09T08:15:35;5.30;99.90
50570;DHT22;36525;49.398;7.614;2023-01-09T08:18:02;5.30;99.90
50570;DHT22;36525;49.398;7.614;2023-01-09T08:20:29;5.30;99.90
50570;DHT22;36525;49.398;7.614;2023-01-09T08:22:56;5.30;99.90
50570;DHT22;36525;49.398;7.614;2023-01-09T08:25:24;5.30;99.90
50570;DHT22;36525;49.398;7.614;2023-01-09T08:27:51;5.30;99.90
50570;DHT22;36525;49.398;7.614;2023-01-09T08:30:19;5.30;99.90
50570;DHT22;36525;49.398;7.614;2023-01-09T08:32:52;5.30;99.90
50570;DHT22;36525;49.398;7.614;2023-01-09T08:35:20;5.30;99.90
50570;DHT22;36525;49.398;7.614;2023-01-09T08:37:48;5.30;99.90
50570;DHT22;36525;49.398;7.614;2023-01-09T08:40:16;5.30;99.90
50570;DHT22;36525;49.398;7.614;2023-01-09T08:42:44;5.40;99.90
50570;DHT22;36525;49.398;7.614;2023-01-09T08:45:30;5.30;99.90
50570;DHT22;36525;49.398;7.614;2023-01-09T08:48:16;5.40;99.90
50570;DHT22;36525;49.398;7.614;2023-01-09T08:50:43;5.50;99.90
50570;DHT22;36525;49.398;7.614;2023-01-09T08:53:10;5.50;99.90
50570;DHT22;36525;49.398;7.614;2023-01-09T08:55:38;5.50;99.90
50570;DHT22;36525;49.398;7.614;2023-01-09T08:58:05;5.50;99.90
50570;DHT22;36525;49.398;7.614;2023-01-09T09:00:32;5.50;99.90
50570;DHT22;36525;49.398;7.614;2023-01-09T09:03:00;5.50;99.90
50570;DHT22;36525;49.398;7.614;2023-01-09T09:05:29;5.40;99.90
50570;DHT22;36525;49.398;7.614;2023-01-09T09:07:58;5.50;99.90
50570;DHT22;36525;49.398;7.614;2023-01-09T09:10:27;5.50;99.90
50570;DHT22;36525;49.398;7.614;2023-01-09T09:12:56;5.50;99.90
50570;DHT22;36525;49.398;7.614;2023-01-09T09:15:26;5.40;99.90
50570;DHT22;36525;49.398;7.614;2023-01-09T09:17:58;5.40;99.90
50570;DHT22;36525;49.398;7.614;2023-01-09T09:20:34;5.50;99.90
50570;DHT22;36525;49.398;7.614;2023-01-09T09:23:03;5.40;99.90
50570;DHT22;36525;49.398;7.614;2023-01-09T09:25:30;5.50;99.90
50570;DHT22;36525;49.398;7.614;2023-01-09T09:27:57;5.50;99.90
50570;DHT22;36525;49.398;7.614;2023-01-09T09:30:27;5.50;99.90
50570;DHT22;36525;49.398;7.614;2023-01-09T09:32:54;5.50;99.90
50570;DHT22;36525;49.398;7.614;2023-01-09T09:35:21;5.50;99.90
50570;DHT22;36525;49.398;7.614;2023-01-09T09:37:53;5.50;99.90
50570;DHT22;36525;49.398;7.614;2023-01-09T09:40:46;5.50;99.90
50570;DHT22;36525;49.398;7.614;2023-01-09T09:43:28;5.50;99.90
50570;DHT22;36525;49.398;7.614;2023-01-09T09:46:23;5.50;99.90
50570;DHT22;36525;49.398;7.614;2023-01-09T09:54:48;5.70;99.90
50570;DHT22;36525;49.398;7.614;2023-01-09T09:57:24;5.70;99.90
50570;DHT22;36525;49.398;7.614;2023-01-09T09:59:57;5.60;99.90
50570;DHT22;36525;49.398;7.614;2023-01-09T10:02:28;5.60;99.90
50570;DHT22;36525;49.398;7.614;2023-01-09T10:05:00;5.60;99.90
50570;DHT22;36525;49.398;7.614;2023-01-09T10:07:36;5.60;99.90
50570;DHT22;36525;49.398;7.614;2023-01-09T10:13:18;5.70;99.90
50570;DHT22;36525;49.398;7.614;2023-01-09T10:19:08;5.80;99.90
50570;DHT22;36525;49.398;7.614;2023-01-09T10:37:22;5.70;99.90
50570;DHT22;36525;49.398;7.614;2023-01-09T10:40:21;5.70;99.90
50570;DHT22;36525;49.398;7.614;2023-01-09T10:42:59;5.70;99.90
50570;DHT22;36525;49.398;7.614;2023-01-09T10:45:46;5.90;99.90
50570;DHT22;36525;49.398;7.614;2023-01-09T10:48:33;5.90;99.90
50570;DHT22;36525;49.398;7.614;2023-01-09T10:51:15;5.90;99.90
50570;DHT22;36525;49.398;7.614;2023-01-09T10:53:49;5.90;99.90
50570;DHT22;36525;49.398;7.614;2023-01-09T10:56:24;5.80;99.90
50570;DHT22;36525;49.398;7.614;2023-01-09T10:58:54;5.80;99.90
50570;DHT22;36525;49.398;7.614;2023-01-09T11:01:42;5.80;99.90
50570;DHT22;36525;49.398;7.614;2023-01-09T11:04:22;5.70;99.90
50570;DHT22;36525;49.398;7.614;2023-01-09T11:06:58;5.70;99.90
50570;DHT22;36525;49.398;7.614;2023-01-09T11:09:27;5.80;99.90
50570;DHT22;36525;49.398;7.614;2023-01-09T11:11:54;5.90;99.90
50570;DHT22;36525;49.398;7.614;2023-01-09T11:14:25;5.80;99.90
50570;DHT22;36525;49.398;7.614;2023-01-09T11:16:59;5.80;99.90
50570;DHT22;36525;49.398;7.614;2023-01-09T11:19:29;5.90;99.90
50570;DHT22;36525;49.398;7.614;2023-01-09T11:22:16;5.80;99.90
50570;DHT22;36525;49.398;7.614;2023-01-09T11:24:43;5.80;99.90
50570;DHT22;36525;49.398;7.614;2023-01-09T11:27:18;5.90;99.90
50570;DHT22;36525;49.398;7.614;2023-01-09T11:30:13;5.80;99.90
50570;DHT22;36525;49.398;7.614;2023-01-09T11:32:43;5.90;99.90
50570;DHT22;36525;49.398;7.614;2023-01-09T11:35:29;5.90;99.90
50570;DHT22;36525;49.398;7.614;2023-01-09T11:38:04;5.80;99.90
50570;DHT22;36525;49.398;7.614;2023-01-09T11:40:43;5.80;99.90
50570;DHT22;36525;49.398;7.614;2023-01-09T11:43:34;5.80;99.90
50570;DHT22;36525;49.398;7.614;2023-01-09T11:46:09;5.70;99.90
50570;DHT22;36525;49.398;7.614;2023-01-09T11:48:53;5.70;99.90
50570;DHT22;36525;49.398;7.614;2023-01-09T11:51:33;5.70;99.90
50570;DHT22;36525;49.398;7.614;2023-01-09T11:54:04;5.70;99.90
50570;DHT22;36525;49.398;7.614;2023-01-09T11:56:38;5.80;99.90
50570;DHT22;36525;49.398;7.614;2023-01-09T11:59:14;5.80;99.90
50570;DHT22;36525;49.398;7.614;2023-01-09T12:19:16;5.90;99.90
50570;DHT22;36525;49.398;7.614;2023-01-09T12:22:51;5.90;99.90
50570;DHT22;36525;49.398;7.614;2023-01-09T12:34:45;6.10;99.90
50570;DHT22;36525;49.398;7.614;2023-01-09T12:37:56;6.20;99.90
50570;DHT22;36525;49.398;7.614;2023-01-09T12:57:26;6.50;99.90
50570;DHT22;36525;49.398;7.614;2023-01-09T13:00:02;6.50;99.90
50570;DHT22;36525;49.398;7.614;2023-01-09T13:02:44;6.60;99.90
50570;DHT22;36525;49.398;7.614;2023-01-09T13:05:51;6.60;99.90
50570;DHT22;36525;49.398;7.614;2023-01-09T13:08:37;6.60;99.90
50570;DHT22;36525;49.398;7.614;2023-01-09T13:14:03;6.50;99.90
50570;DHT22;36525;49.398;7.614;2023-01-09T13:16:36;6.60;99.90
50570;DHT22;36525;49.398;7.614;2023-01-09T13:19:26;6.70;99.90
50570;DHT22;36525;49.398;7.614;2023-01-09T13:21:56;6.70;99.90
50570;DHT22;36525;49.398;7.614;2023-01-09T13:24:29;6.70;99.90
50570;DHT22;36525;49.398;7.614;2023-01-09T13:27:08;6.80;99.90
50570;DHT22;36525;49.398;7.614;2023-01-09T13:29:41;7.00;99.90
50570;DHT22;36525;49.398;7.614;2023-01-09T13:35:17;7.10;99.90
50570;DHT22;36525;49.398;7.614;2023-01-09T13:37:49;7.00;99.90
50570;DHT22;36525;49.398;7.614;2023-01-09T13:50:46;6.80;99.90
50570;DHT22;36525;49.398;7.614;2023-01-09T13:56:05;6.90;99.90
50570;DHT22;36525;49.398;7.614;2023-01-09T14:06:35;6.80;99.90
50570;DHT22;36525;49.398;7.614;2023-01-09T14:09:16;6.90;99.90
50570;DHT22;36525;49.398;7.614;2023-01-09T14:11:45;6.90;99.90
50570;DHT22;36525;49.398;7.614;2023-01-09T14:14:21;6.80;99.90
50570;DHT22;36525;49.398;7.614;2023-01-09T14:16:55;6.70;99.90
50570;DHT22;36525;49.398;7.614;2023-01-09T14:19:31;6.80;99.90
50570;DHT22;36525;49.398;7.614;2023-01-09T14:22:05;6.80;99.90
50570;DHT22;36525;49.398;7.614;2023-01-09T14:24:40;6.70;99.90
50570;DHT22;36525;49.398;7.614;2023-01-09T14:35:41;6.20;99.90
50570;DHT22;36525;49.398;7.614;2023-01-09T14:38:25;6.20;99.90
50570;DHT22;36525;49.398;7.614;2023-01-09T14:41:05;6.00;99.90
50570;DHT22;36525;49.398;7.614;2023-01-09T14:43:45;6.00;99.90
50570;DHT22;36525;49.398;7.614;2023-01-09T14:46:19;5.90;99.90
50570;DHT22;36525;49.398;7.614;2023-01-09T14:49:02;5.80;99.90
50570;DHT22;36525;49.398;7.614;2023-01-09T14:51:44;5.80;99.90
50570;DHT22;36525;49.398;7.614;2023-01-09T14:54:27;5.80;99.90
50570;DHT22;36525;49.398;7.614;2023-01-09T14:56:57;5.70;99.90
50570;DHT22;36525;49.398;7.614;2023-01-09T14:59:26;5.60;99.90
50570;DHT22;36525;49.398;7.614;2023-01-09T15:01:56;5.60;99.90
50570;DHT22;36525;49.398;7.614;2023-01-09T15:06:57;5.60;99.90
50570;DHT22;36525;49.398;7.614;2023-01-09T15:12:25;5.60;99.90
50570;DHT22;36525;49.398;7.614;2023-01-09T15:14:55;5.70;99.90
50570;DHT22;36525;49.398;7.614;2023-01-09T15:17:27;5.70;99.90
50570;DHT22;36525;49.398;7.614;2023-01-09T15:19:58;5.60;99.90
50570;DHT22;36525;49.398;7.614;2023-01-09T15:22:31;5.60;99.90
50570;DHT22;36525;49.398;7.614;2023-01-09T15:25:24;5.60;99.90
50570;DHT22;36525;49.398;7.614;2023-01-09T15:28:27;5.50;99.90
50570;DHT22;36525;49.398;7.614;2023-01-09T15:31:03;5.40;99.90
50570;DHT22;36525;49.398;7.614;2023-01-09T15:33:33;5.40;99.90
50570;DHT22;36525;49.398;7.614;2023-01-09T15:36:05;5.40;99.90
50570;DHT22;36525;49.398;7.614;2023-01-09T15:38:38;5.40;99.90
50570;DHT22;36525;49.398;7.614;2023-01-09T15:41:09;5.40;99.90
50570;DHT22;36525;49.398;7.614;2023-01-09T15:43:41;5.30;99.90
50570;DHT22;36525;49.398;7.614;2023-01-09T15:46:10;5.30;99.90
50570;DHT22;36525;49.398;7.614;2023-01-09T15:48:40;5.30;99.90
50570;DHT22;36525;49.398;7.614;2023-01-09T15:51:13;5.30;99.90
50570;DHT22;36525;49.398;7.614;2023-01-09T15:53:47;5.20;99.90
50570;DHT22;36525;49.398;7.614;2023-01-09T15:56:27;5.20;99.90
50570;DHT22;36525;49.398;7.614;2023-01-09T15:58:59;5.20;99.90
50570;DHT22;36525;49.398;7.614;2023-01-09T16:04:15;5.10;99.90
50570;DHT22;36525;49.398;7.614;2023-01-09T16:06:48;5.10;99.90
50570;DHT22;36525;49.398;7.614;2023-01-09T16:12:02;5.00;99.90
50570;DHT22;36525;49.398;7.614;2023-01-09T16:14:37;4.90;99.90
50570;DHT22;36525;49.398;7.614;2023-01-09T16:17:15;4.90;99.90
50570;DHT22;36525;49.398;7.614;2023-01-09T16:19:50;4.90;99.90
50570;DHT22;36525;49.398;7.614;2023-01-09T16:25:02;4.90;99.90
50570;DHT22;36525;49.398;7.614;2023-01-09T16:28:15;4.90;99.90
50570;DHT22;36525;49.398;7.614;2023-01-09T16:31:12;4.90;99.90
50570;DHT22;36525;49.398;7.614;2023-01-09T16:33:47;4.90;99.90
50570;DHT22;36525;49.398;7.614;2023-01-09T16:36:17;4.90;99.90
50570;DHT22;36525;49.398;7.614;2023-01-09T16:38:45;4.90;99.90
50570;DHT22;36525;49.398;7.614;2023-01-09T16:44:07;4.80;99.90
50570;DHT22;36525;49.398;7.614;2023-01-09T16:46:41;4.80;99.90
50570;DHT22;36525;49.398;7.614;2023-01-09T16:49:29;4.70;99.90
50570;DHT22;36525;49.398;7.614;2023-01-09T16:51:56;4.80;99.90
50570;DHT22;36525;49.398;7.614;2023-01-09T16:54:31;4.70;99.90
50570;DHT22;36525;49.398;7.614;2023-01-09T16:56:59;4.80;99.90
50570;DHT22;36525;49.398;7.614;2023-01-09T16:59:27;4.80;99.90
50570;DHT22;36525;49.398;7.614;2023-01-09T17:01:54;4.80;99.90
50570;DHT22;36525;49.398;7.614;2023-01-09T17:04:21;4.80;99.90
50570;DHT22;36525;49.398;7.614;2023-01-09T17:06:52;4.80;99.90
50570;DHT22;36525;49.398;7.614;2023-01-09T17:09:19;4.80;99.90
50570;DHT22;36525;49.398;7.614;2023-01-09T17:11:53;4.80;99.90
50570;DHT22;36525;49.398;7.614;2023-01-09T17:14:20;4.80;99.90
50570;DHT22;36525;49.398;7.614;2023-01-09T17:16:48;4.90;99.90
50570;DHT22;36525;49.398;7.614;2023-01-09T17:19:17;4.80;99.90
50570;DHT22;36525;49.398;7.614;2023-01-09T17:21:46;4.80;99.90
50570;DHT22;36525;49.398;7.614;2023-01-09T17:24:13;4.90;99.90
50570;DHT22;36525;49.398;7.614;2023-01-09T17:27:00;4.80;99.90
50570;DHT22;36525;49.398;7.614;2023-01-09T17:29:46;4.80;99.90
50570;DHT22;36525;49.398;7.614;2023-01-09T17:32:15;4.80;99.90
50570;DHT22;36525;49.398;7.614;2023-01-09T17:34:43;4.80;99.90
50570;DHT22;36525;49.398;7.614;2023-01-09T17:37:17;4.70;99.90
50570;DHT22;36525;49.398;7.614;2023-01-09T17:39:45;4.70;99.90
50570;DHT22;36525;49.398;7.614;2023-01-09T17:42:12;4.60;99.90
50570;DHT22;36525;49.398;7.614;2023-01-09T17:44:39;4.70;99.90
50570;DHT22;36525;49.398;7.614;2023-01-09T17:47:12;4.60;99.90
50570;DHT22;36525;49.398;7.614;2023-01-09T17:49:40;4.70;99.90
50570;DHT22;36525;49.398;7.614;2023-01-09T17:52:08;4.80;99.90
50570;DHT22;36525;49.398;7.614;2023-01-09T17:54:35;4.70;99.90
50570;DHT22;36525;49.398;7.614;2023-01-09T17:57:02;4.80;99.90
50570;DHT22;36525;49.398;7.614;2023-01-09T17:59:29;4.80;99.90
50570;DHT22;36525;49.398;7.614;2023-01-09T18:01:56;4.70;99.90
50570;DHT22;36525;49.398;7.614;2023-01-09T18:04:23;4.80;99.90
50570;DHT22;36525;49.398;7.614;2023-01-09T18:06:50;4.80;99.90
50570;DHT22;36525;49.398;7.614;2023-01-09T18:09:18;4.80;99.90
50570;DHT22;36525;49.398;7.614;2023-01-09T18:11:45;4.80;99.90
50570;DHT22;36525;49.398;7.614;2023-01-09T18:14:14;4.80;99.90
50570;DHT22;36525;49.398;7.614;2023-01-09T18:16:42;4.80;99.90
50570;DHT22;36525;49.398;7.614;2023-01-09T18:19:11;4.80;99.90
50570;DHT22;36525;49.398;7.614;2023-01-09T18:21:38;4.90;99.90
50570;DHT22;36525;49.398;7.614;2023-01-09T18:24:05;4.80;99.90
50570;DHT22;36525;49.398;7.614;2023-01-09T18:26:32;4.80;99.90
50570;DHT22;36525;49.398;7.614;2023-01-09T18:28:59;4.80;99.90
50570;DHT22;36525;49.398;7.614;2023-01-09T18:31:27;4.80;99.90
50570;DHT22;36525;49.398;7.614;2023-01-09T18:33:57;4.70;99.90
50570;DHT22;36525;49.398;7.614;2023-01-09T18:36:28;4.70;99.90
50570;DHT22;36525;49.398;7.614;2023-01-09T18:38:57;4.60;99.90
50570;DHT22;36525;49.398;7.614;2023-01-09T18:41:27;4.60;99.90
50570;DHT22;36525;49.398;7.614;2023-01-09T18:43:56;4.60;99.90
50570;DHT22;36525;49.398;7.614;2023-01-09T18:46:25;4.60;99.90
50570;DHT22;36525;49.398;7.614;2023-01-09T18:49:03;4.70;99.90
50570;DHT22;36525;49.398;7.614;2023-01-09T18:51:33;4.70;99.90
50570;DHT22;36525;49.398;7.614;2023-01-09T18:54:02;4.70;99.90